createdAt,value
2018-09-14T00:00:37.680Z,71.10
2018-09-14T00:03:08.080Z,70.90
2018-09-14T00:05:37.196Z,71.00
2018-09-14T00:09:35.242Z,71.10
2018-09-14T00:12:03.724Z,71.10
2018-09-14T00:14:32.507Z,70.90
2018-09-14T00:17:01.410Z,71.60
2018-09-14T00:19:30.365Z,70.50
2018-09-14T00:21:59.075Z,71.50
2018-09-14T00:24:27.681Z,70.70
2018-09-14T00:26:56.311Z,71.00
2018-09-14T00:29:28.010Z,70.70
2018-09-14T00:31:56.656Z,70.40
2018-09-14T00:34:25.432Z,70.10
2018-09-14T00:36:54.135Z,70.00
2018-09-14T00:39:22.976Z,70.20
2018-09-14T00:41:52.735Z,70.10
2018-09-14T00:44:21.525Z,71.40
2018-09-14T00:46:50.166Z,70.60
2018-09-14T00:49:20.394Z,70.30
2018-09-14T00:51:48.914Z,71.40
2018-09-14T00:54:20.705Z,70.40
2018-09-14T00:56:49.476Z,70.40
2018-09-14T00:59:18.383Z,71.70
2018-09-14T01:01:47.104Z,71.50
2018-09-14T01:04:15.986Z,71.40
2018-09-14T01:06:44.480Z,70.90
2018-09-14T01:09:18.179Z,70.70
2018-09-14T01:11:47.393Z,71.00
2018-09-14T01:14:15.824Z,71.80
2018-09-14T01:16:44.643Z,71.10
2018-09-14T01:19:13.161Z,71.70
2018-09-14T01:21:42.280Z,72.10
2018-09-14T01:24:10.742Z,71.60
2018-09-14T01:26:39.261Z,71.40
2018-09-14T01:29:08.016Z,71.30
2018-09-14T01:31:36.832Z,72.90
2018-09-14T01:34:05.386Z,73.00
2018-09-14T01:36:34.592Z,71.50
2018-09-14T01:39:03.434Z,72.40
2018-09-14T01:41:31.781Z,72.20
2018-09-14T01:44:00.630Z,72.40
2018-09-14T01:46:29.339Z,73.10
2018-09-14T01:48:58.314Z,72.60
2018-09-14T01:51:27.009Z,72.20
2018-09-14T01:53:55.665Z,71.50
2018-09-14T02:03:23.962Z,72.20
2018-09-14T02:05:52.416Z,72.60
2018-09-14T02:08:21.512Z,72.30
2018-09-14T02:10:52.645Z,73.30
2018-09-14T02:13:21.375Z,73.90
2018-09-14T02:15:50.066Z,72.60
2018-09-14T02:18:18.699Z,72.80
2018-09-14T02:20:47.137Z,72.60
2018-09-14T02:23:15.869Z,73.10
2018-09-14T02:25:44.580Z,72.60
2018-09-14T02:28:14.068Z,72.40
2018-09-14T02:30:42.646Z,73.00
2018-09-14T02:33:11.258Z,73.40
2018-09-14T02:35:40.136Z,72.30
2018-09-14T02:38:08.910Z,73.10
2018-09-14T02:40:37.282Z,73.30
2018-09-14T02:43:05.889Z,74.50
2018-09-14T02:45:34.542Z,73.00
2018-09-14T02:48:03.558Z,72.90
2018-09-14T02:50:32.166Z,73.60
2018-09-14T02:53:01.221Z,73.40
2018-09-14T02:55:29.721Z,73.50
2018-09-14T02:57:58.294Z,73.70
2018-09-14T03:00:26.830Z,73.90
2018-09-14T03:02:55.449Z,73.30
2018-09-14T03:05:24.340Z,73.40
2018-09-14T03:07:53.653Z,74.40
2018-09-14T03:10:22.832Z,72.90
2018-09-14T03:12:51.621Z,72.70
2018-09-14T03:15:20.391Z,72.60
2018-09-14T03:17:50.997Z,72.60
2018-09-14T03:20:19.760Z,72.60
2018-09-14T03:22:49.595Z,73.40
2018-09-14T03:25:18.153Z,73.80
2018-09-14T03:27:46.773Z,73.80
2018-09-14T03:30:15.553Z,72.90
2018-09-14T03:32:44.242Z,73.80
2018-09-14T03:35:14.150Z,73.00
2018-09-14T03:37:43.764Z,73.10
2018-09-14T03:40:12.602Z,73.10
2018-09-14T03:42:41.352Z,73.60
2018-09-14T03:45:10.044Z,73.40
2018-09-14T03:47:39.984Z,74.10
2018-09-14T03:50:08.290Z,73.50
2018-09-14T03:52:37.330Z,73.20
2018-09-14T03:55:05.788Z,73.80
2018-09-14T03:57:35.605Z,76.10
2018-09-14T04:00:04.265Z,73.40
2018-09-14T04:02:33.005Z,74.50
2018-09-14T04:05:01.843Z,75.50
2018-09-14T04:07:30.798Z,74.10
2018-09-14T04:09:59.613Z,75.80
2018-09-14T04:12:28.436Z,75.80
2018-09-14T04:14:57.247Z,76.00
2018-09-14T04:17:25.732Z,75.90
2018-09-14T04:19:54.461Z,76.90
2018-09-14T04:22:23.145Z,76.40
2018-09-14T04:24:51.687Z,75.00
2018-09-14T04:27:20.615Z,74.30
2018-09-14T04:29:49.299Z,76.70
2018-09-14T04:32:18.228Z,75.90
2018-09-14T04:34:46.668Z,74.60
2018-09-14T04:37:15.200Z,75.10
2018-09-14T04:39:43.877Z,75.40
2018-09-14T04:42:12.745Z,74.50
2018-09-14T04:44:41.272Z,76.20
2018-09-14T04:47:09.947Z,75.00
2018-09-14T04:49:38.836Z,74.70
2018-09-14T04:52:08.242Z,76.10
2018-09-14T04:54:36.764Z,75.90
2018-09-14T04:57:05.504Z,74.80
2018-09-14T04:59:34.586Z,75.00
2018-09-14T05:02:03.181Z,75.40
2018-09-14T05:04:35.025Z,75.00
2018-09-14T05:07:03.996Z,75.10
2018-09-14T05:09:32.634Z,75.10
2018-09-14T05:12:01.386Z,74.50
2018-09-14T05:14:29.989Z,75.70
2018-09-14T05:16:59.618Z,75.00
2018-09-14T05:19:28.440Z,75.90
2018-09-14T05:21:56.850Z,76.50
2018-09-14T05:24:25.572Z,75.30
2018-09-14T05:26:54.501Z,75.90
2018-09-14T05:29:23.221Z,76.20
2018-09-14T05:31:52.036Z,75.90
2018-09-14T05:34:20.813Z,76.60
2018-09-14T05:36:49.965Z,75.80
2018-09-14T05:39:18.235Z,76.00
2018-09-14T05:41:47.141Z,75.80
2018-09-14T05:44:15.896Z,75.50
2018-09-14T05:46:45.536Z,75.50
2018-09-14T05:49:14.310Z,74.80
2018-09-14T05:51:43.120Z,75.10
2018-09-14T05:54:11.821Z,75.70
2018-09-14T05:56:40.656Z,77.10
2018-09-14T05:59:09.272Z,75.60
2018-09-14T06:01:38.405Z,75.60
2018-09-14T06:04:06.708Z,75.90
2018-09-14T06:06:35.275Z,75.80
2018-09-14T06:09:06.809Z,75.80
2018-09-14T06:11:35.642Z,75.50
2018-09-14T06:14:04.456Z,76.80
2018-09-14T06:16:34.433Z,76.80
2018-09-14T06:19:03.173Z,76.10
2018-09-14T06:21:31.845Z,75.50
2018-09-14T06:24:00.202Z,75.50
2018-09-14T06:26:28.670Z,75.80
2018-09-14T06:28:57.378Z,76.70
2018-09-14T06:31:26.156Z,77.10
2018-09-14T06:33:54.712Z,76.00
2018-09-14T06:36:23.712Z,75.90
2018-09-14T06:38:52.489Z,76.60
2018-09-14T06:41:22.321Z,76.20
2018-09-14T06:43:50.744Z,76.30
2018-09-14T06:46:19.198Z,77.90
2018-09-14T06:48:47.820Z,76.80
2018-09-14T06:51:17.617Z,77.60
2018-09-14T06:53:47.387Z,76.80
2018-09-14T06:56:16.021Z,76.90
2018-09-14T06:58:44.621Z,77.70
2018-09-14T07:01:13.322Z,77.30
2018-09-14T07:03:41.936Z,77.10
2018-09-14T07:06:10.627Z,78.80
2018-09-14T07:08:39.221Z,77.50
2018-09-14T07:11:07.724Z,76.90
2018-09-14T07:13:36.348Z,76.60
2018-09-14T07:16:04.824Z,76.70
2018-09-14T07:18:33.749Z,77.90
2018-09-14T07:21:02.448Z,76.20
2018-09-14T07:23:31.277Z,76.70
2018-09-14T07:25:59.902Z,77.00
2018-09-14T07:28:28.393Z,78.20
2018-09-14T07:30:57.230Z,76.50
2018-09-14T07:33:25.993Z,77.30
2018-09-14T07:35:54.628Z,78.20
2018-09-14T07:38:24.590Z,77.60
2018-09-14T07:40:53.008Z,78.80
2018-09-14T07:43:21.834Z,77.80
2018-09-14T07:45:50.598Z,77.40
2018-09-14T07:48:19.385Z,76.90
2018-09-14T07:50:47.937Z,78.60
2018-09-14T07:53:17.013Z,77.50
2018-09-14T07:55:45.533Z,77.50
2018-09-14T07:58:14.390Z,77.40
2018-09-14T08:00:43.085Z,79.20
2018-09-14T08:03:12.005Z,78.50
2018-09-14T08:05:40.412Z,78.20
2018-09-14T08:08:09.170Z,77.40
2018-09-14T08:10:37.937Z,78.50
2018-09-14T08:13:06.575Z,77.20
2018-09-14T08:15:35.251Z,77.10
2018-09-14T08:18:03.952Z,77.40
2018-09-14T08:20:32.888Z,76.80
2018-09-14T08:23:01.368Z,77.20
2018-09-14T08:25:30.009Z,77.00
2018-09-14T08:27:58.728Z,76.90
2018-09-14T08:30:27.543Z,77.60
2018-09-14T08:32:55.976Z,77.00
2018-09-14T08:35:24.736Z,77.40
2018-09-14T08:37:53.608Z,76.30
2018-09-14T08:40:22.364Z,77.30
2018-09-14T08:42:51.182Z,76.40
2018-09-14T08:45:19.859Z,77.20
2018-09-14T08:47:48.836Z,77.50
2018-09-14T08:50:17.320Z,77.20
2018-09-14T08:52:46.157Z,76.80
2018-09-14T08:55:14.789Z,76.60
2018-09-14T08:57:43.312Z,77.30
2018-09-14T09:00:11.977Z,77.60
2018-09-14T09:02:40.542Z,77.10
2018-09-14T09:05:09.177Z,76.70
2018-09-14T09:07:37.868Z,76.60
2018-09-14T09:10:06.493Z,76.20
2018-09-14T09:12:35.494Z,76.20
2018-09-14T09:15:04.346Z,75.40
2018-09-14T09:17:34.017Z,75.90
2018-09-14T09:20:02.696Z,75.70
2018-09-14T09:22:31.323Z,75.00
2018-09-14T09:25:00.080Z,75.10
2018-09-14T09:27:28.757Z,75.50
2018-09-14T09:29:57.962Z,75.00
2018-09-14T09:32:27.121Z,75.10
2018-09-14T09:34:55.884Z,75.30
2018-09-14T09:37:24.520Z,74.90
2018-09-14T09:39:53.470Z,75.40
2018-09-14T09:42:21.948Z,75.30
2018-09-14T09:44:50.665Z,74.60
2018-09-14T09:47:19.310Z,74.60
2018-09-14T09:49:47.888Z,75.40
2018-09-14T09:52:17.916Z,75.10
2018-09-14T09:54:46.349Z,74.70
2018-09-14T09:57:15.079Z,75.20
2018-09-14T09:59:43.833Z,75.30
2018-09-14T10:02:17.884Z,75.70
2018-09-14T10:04:52.368Z,75.20
2018-09-14T10:07:21.636Z,75.60
2018-09-14T10:09:50.349Z,75.10
2018-09-14T10:12:19.179Z,75.00
2018-09-14T10:14:48.035Z,75.60
2018-09-14T10:17:16.473Z,76.10
2018-09-14T10:19:48.234Z,76.30
2018-09-14T10:22:16.863Z,75.70
2018-09-14T10:24:45.702Z,76.80
2018-09-14T10:27:14.296Z,76.40
2018-09-14T10:29:42.927Z,76.10
2018-09-14T10:32:14.631Z,76.20
2018-09-14T10:34:43.366Z,76.10
2018-09-14T10:37:12.110Z,76.00
2018-09-14T10:39:40.941Z,77.30
2018-09-14T10:42:09.709Z,76.00
2018-09-14T10:44:38.921Z,76.10
2018-09-14T10:47:07.425Z,75.80
2018-09-14T10:49:36.273Z,75.90
2018-09-14T10:52:05.253Z,75.50
2018-09-14T10:54:33.697Z,76.50
2018-09-14T10:57:02.652Z,75.80
2018-09-14T10:59:31.562Z,75.10
2018-09-14T11:02:00.196Z,76.70
2018-09-14T11:04:29.703Z,74.30
2018-09-14T11:06:58.888Z,74.60
2018-09-14T11:09:28.174Z,73.90
2018-09-14T11:11:56.679Z,73.70
2018-09-14T11:14:25.432Z,73.40
2018-09-14T11:16:54.224Z,73.20
2018-09-14T11:19:23.096Z,72.90
2018-09-14T11:21:51.450Z,72.60
2018-09-14T11:24:20.286Z,72.30
2018-09-14T11:26:48.954Z,71.90
2018-09-14T11:29:17.666Z,71.10
2018-09-14T11:31:46.459Z,71.90
2018-09-14T11:34:14.966Z,70.90
2018-09-14T11:36:43.701Z,71.20
2018-09-14T11:39:12.454Z,71.10
2018-09-14T11:41:41.201Z,72.40
2018-09-14T11:44:09.928Z,70.40
2018-09-14T11:46:38.643Z,70.60
2018-09-14T11:49:07.389Z,70.30
2018-09-14T11:51:36.454Z,69.80
2018-09-14T11:54:06.246Z,67.90
2018-09-14T11:56:35.848Z,68.70
2018-09-14T11:59:04.342Z,68.20
2018-09-14T12:01:33.032Z,70.00
2018-09-14T12:04:02.120Z,70.20
2018-09-14T12:06:31.219Z,70.10
2018-09-14T12:09:00.741Z,70.00
2018-09-14T12:11:29.424Z,67.10
2018-09-14T12:13:58.136Z,68.20
2018-09-14T12:16:26.564Z,68.30
2018-09-14T12:18:55.645Z,66.20
2018-09-14T12:21:24.722Z,65.40
2018-09-14T12:23:53.463Z,66.90
2018-09-14T12:26:23.109Z,67.60
2018-09-14T12:28:53.074Z,65.10
2018-09-14T12:38:14.663Z,62.60
2018-09-14T12:40:44.856Z,65.80
2018-09-14T12:43:14.857Z,66.60
2018-09-14T12:45:44.598Z,66.20
2018-09-14T12:48:13.434Z,65.50
2018-09-14T12:50:43.589Z,66.30
2018-09-14T12:56:22.820Z,65.50
2018-09-14T12:58:52.015Z,66.50
2018-09-14T13:01:23.484Z,67.60
2018-09-14T13:03:59.992Z,66.80
2018-09-14T13:06:29.225Z,67.10
2018-09-14T13:17:38.874Z,68.60
2018-09-14T13:20:07.484Z,68.90
2018-09-14T13:22:36.033Z,69.10
2018-09-14T13:27:58.438Z,68.30
2018-09-14T13:30:27.138Z,65.70
2018-09-14T13:32:55.913Z,67.60
2018-09-14T13:35:39.172Z,67.10
2018-09-14T13:41:01.786Z,64.00
2018-09-14T13:43:53.484Z,61.80
2018-09-14T13:46:22.430Z,63.00
2018-09-14T13:54:43.774Z,63.00
2018-09-14T14:05:52.132Z,60.90
2018-09-14T14:08:20.845Z,62.80
2018-09-14T14:10:49.458Z,62.10
2018-09-14T14:13:18.229Z,61.20
2018-09-14T14:15:46.970Z,62.80
2018-09-14T14:18:15.777Z,60.70
2018-09-14T14:20:44.442Z,61.90
2018-09-14T14:23:13.230Z,62.40
2018-09-14T14:25:41.961Z,62.20
2018-09-14T14:28:10.955Z,60.70
2018-09-14T14:33:33.146Z,60.20
2018-09-14T14:36:02.122Z,60.40
2018-09-14T14:38:30.908Z,62.80
2018-09-14T14:41:00.743Z,64.10
2018-09-14T14:46:22.161Z,63.80
2018-09-14T14:51:47.561Z,65.00
2018-09-14T14:54:16.172Z,64.60
2018-09-14T14:56:51.684Z,63.60
2018-09-14T14:59:26.399Z,64.30
2018-09-14T15:04:48.104Z,64.10
2018-09-14T15:13:17.296Z,64.10
2018-09-14T15:15:46.853Z,64.20
2018-09-14T15:18:29.593Z,64.00
2018-09-14T15:20:57.963Z,63.80
2018-09-14T15:23:26.835Z,63.00
2018-09-14T15:26:02.121Z,64.00
2018-09-14T15:28:31.015Z,63.90
2018-09-14T15:31:00.251Z,64.90
2018-09-14T15:33:28.881Z,63.80
2018-09-14T15:36:00.841Z,63.80
2018-09-14T15:41:23.297Z,65.00
2018-09-14T15:43:52.157Z,65.40
2018-09-14T15:46:20.957Z,65.60
2018-09-14T15:48:52.949Z,66.00
2018-09-14T15:51:21.829Z,65.80
2018-09-14T15:56:44.568Z,65.30
2018-09-14T16:06:03.496Z,65.60
2018-09-14T16:08:32.021Z,65.90
2018-09-14T16:11:00.995Z,66.40
2018-09-14T16:13:45.984Z,66.00
2018-09-14T16:16:17.612Z,66.50
2018-09-14T16:18:47.778Z,66.40
2018-09-14T16:24:08.966Z,66.80
2018-09-14T16:26:37.705Z,66.90
2018-09-14T16:29:06.586Z,67.00
2018-09-14T16:31:35.450Z,67.10
2018-09-14T16:34:04.071Z,66.40
2018-09-14T16:36:32.897Z,67.00
2018-09-14T16:41:56.969Z,66.50
2018-09-14T16:44:25.796Z,66.70
2018-09-14T16:50:09.491Z,66.50
2018-09-14T16:52:37.830Z,66.80
2018-09-14T16:55:06.630Z,67.30
2018-09-14T16:57:35.616Z,67.60
2018-09-14T17:00:06.165Z,67.80
2018-09-14T17:02:45.780Z,68.00
2018-09-14T17:05:14.494Z,68.10
2018-09-14T17:10:36.837Z,68.30
2018-09-14T17:16:00.519Z,68.30
2018-09-14T17:18:42.900Z,68.40
2018-09-14T17:21:12.388Z,68.80
2018-09-14T17:23:53.241Z,68.80
2018-09-14T17:26:21.877Z,68.90
2018-09-14T17:29:02.895Z,68.90
2018-09-14T17:31:32.082Z,69.10
2018-09-14T17:37:00.807Z,69.10
2018-09-14T17:39:30.107Z,69.00
2018-09-14T17:53:31.908Z,71.60
2018-09-14T17:56:00.370Z,71.50
2018-09-14T17:58:29.340Z,71.70
2018-09-14T18:03:54.038Z,71.40
2018-09-14T18:06:23.480Z,71.70
2018-09-14T18:13:51.956Z,71.10
2018-09-14T18:19:20.252Z,73.70
2018-09-14T18:21:55.070Z,73.20
2018-09-14T18:33:03.769Z,72.00
2018-09-14T18:38:47.036Z,72.50
2018-09-14T18:41:15.505Z,73.10
2018-09-14T18:43:43.841Z,72.30
2018-09-14T18:51:59.425Z,73.20
2018-09-14T18:54:27.919Z,73.10
2018-09-14T18:56:57.116Z,73.90
2018-09-14T18:59:27.708Z,73.40
2018-09-14T19:01:56.329Z,73.00
2018-09-14T19:04:30.507Z,73.30
2018-09-14T19:06:59.240Z,73.30
2018-09-14T19:15:29.704Z,72.80
2018-09-14T19:17:58.823Z,73.00
2018-09-14T19:20:27.874Z,72.70
2018-09-14T19:22:56.761Z,72.70
2018-09-14T19:31:11.912Z,73.30
2018-09-14T19:33:40.627Z,73.40
2018-09-14T19:39:03.344Z,73.10
2018-09-14T19:41:32.101Z,73.50
2018-09-14T19:44:01.511Z,73.00
2018-09-14T19:47:34.092Z,73.20
2018-09-14T19:50:04.719Z,73.20
2018-09-14T19:52:33.407Z,72.90
2018-09-14T19:55:02.147Z,72.90
2018-09-14T19:57:37.401Z,73.10
2018-09-14T20:02:58.275Z,73.80
2018-09-14T20:05:27.453Z,73.80
2018-09-14T20:07:56.380Z,74.60
2018-09-14T20:10:25.016Z,74.30
2018-09-14T20:13:06.308Z,73.80
2018-09-14T20:18:47.331Z,74.10
2018-09-14T20:27:03.121Z,74.50
2018-09-14T20:32:39.761Z,74.20
2018-09-14T20:35:08.892Z,74.40
2018-09-14T20:37:38.090Z,74.50
2018-09-14T20:40:07.804Z,74.90
2018-09-14T20:51:29.530Z,76.10
2018-09-14T21:02:39.279Z,75.70
2018-09-14T21:08:01.645Z,75.30
2018-09-14T21:10:30.168Z,75.10
2018-09-14T21:12:58.772Z,74.50
2018-09-14T21:15:43.645Z,75.70
2018-09-14T21:18:12.084Z,76.20
2018-09-14T21:20:40.765Z,76.20
2018-09-14T21:26:03.432Z,76.10
2018-09-14T21:28:31.992Z,77.50
2018-09-14T21:31:00.810Z,85.30
2018-09-14T21:45:04.443Z,88.80
2018-09-14T21:47:32.795Z,88.60
2018-09-14T21:50:01.440Z,88.60
2018-09-14T22:04:02.464Z,87.20
2018-09-14T22:06:31.286Z,87.50
2018-09-14T22:09:00.004Z,88.30
2018-09-14T22:11:34.044Z,88.00
2018-09-14T22:14:03.013Z,87.20
2018-09-14T22:16:31.776Z,88.30
2018-09-14T22:36:21.333Z,83.80
2018-09-14T22:38:50.149Z,83.20
2018-09-14T22:41:18.763Z,83.70
2018-09-14T22:49:44.140Z,84.20
2018-09-14T22:52:12.309Z,86.30
2018-09-14T22:54:40.768Z,84.00
2018-09-14T23:02:56.382Z,83.70
2018-09-14T23:08:18.945Z,84.10
2018-09-14T23:13:41.555Z,84.60
2018-09-14T23:24:49.551Z,83.70
2018-09-14T23:35:57.920Z,82.70
2018-09-14T23:38:27.087Z,82.10
2018-09-14T23:40:55.891Z,83.10
2018-09-14T23:46:17.621Z,82.90
2018-09-14T23:48:45.918Z,81.60
2018-09-14T23:55:37.874Z,81.70
2018-09-14T23:58:06.600Z,81.90
